createdAt,value
2022-09-27T00:00:48.053Z,10.86
2022-09-27T00:03:16.360Z,10.85
2022-09-27T00:05:44.330Z,10.86
2022-09-27T00:08:12.274Z,10.85
2022-09-27T00:10:43.219Z,10.84
2022-09-27T00:13:12.544Z,10.84
2022-09-27T00:15:40.489Z,10.85
2022-09-27T00:18:10.180Z,10.87
2022-09-27T00:20:38.227Z,10.86
2022-09-27T00:23:06.149Z,10.86
2022-09-27T00:25:34.108Z,10.88
2022-09-27T00:28:02.655Z,10.89
2022-09-27T00:30:31.987Z,10.88
2022-09-27T00:33:00.433Z,10.88
2022-09-27T00:35:28.359Z,10.87
2022-09-27T00:37:56.334Z,10.87
2022-09-27T00:40:24.558Z,10.86
2022-09-27T00:42:52.527Z,10.84
2022-09-27T00:45:20.515Z,10.84
2022-09-27T00:47:55.963Z,10.84
2022-09-27T00:50:29.772Z,10.84
2022-09-27T00:53:09.911Z,10.83
2022-09-27T00:55:42.123Z,10.80
2022-09-27T00:58:11.831Z,10.79
2022-09-27T01:00:45.099Z,10.76
2022-09-27T01:03:23.938Z,10.75
2022-09-27T01:05:52.462Z,10.72
2022-09-27T01:08:20.415Z,10.71
2022-09-27T01:10:54.835Z,10.70
2022-09-27T01:13:29.335Z,10.68
2022-09-27T01:16:02.933Z,10.66
2022-09-27T01:18:39.053Z,10.66
2022-09-27T01:21:42.547Z,10.67
2022-09-27T01:24:45.833Z,10.67
2022-09-27T01:27:51.264Z,10.69
2022-09-27T01:30:27.347Z,10.70
2022-09-27T01:33:15.203Z,10.71
2022-09-27T01:35:54.323Z,10.70
2022-09-27T01:38:26.880Z,10.71
2022-09-27T01:41:00.856Z,10.72
2022-09-27T01:43:32.186Z,10.71
2022-09-27T01:46:08.037Z,10.71
2022-09-27T01:48:42.755Z,10.71
2022-09-27T01:51:16.211Z,10.71
2022-09-27T01:53:47.999Z,10.71
2022-09-27T01:56:19.646Z,10.72
2022-09-27T01:58:54.976Z,10.74
2022-09-27T02:01:27.812Z,10.73
2022-09-27T02:03:59.167Z,10.75
2022-09-27T02:06:32.314Z,10.74
2022-09-27T02:09:05.036Z,10.75
2022-09-27T02:11:34.026Z,10.74
2022-09-27T02:14:05.834Z,10.76
2022-09-27T02:16:45.717Z,10.76
2022-09-27T02:19:22.325Z,10.76
2022-09-27T02:22:00.952Z,10.76
2022-09-27T02:24:38.712Z,10.77
2022-09-27T02:27:14.439Z,10.77
2022-09-27T02:29:47.891Z,10.76
2022-09-27T02:32:17.487Z,10.75
2022-09-27T02:34:47.169Z,10.75
2022-09-27T02:37:15.406Z,10.77
2022-09-27T02:39:43.619Z,10.76
2022-09-27T02:42:11.839Z,10.75
2022-09-27T02:44:40.909Z,10.74
2022-09-27T02:47:36.466Z,10.71
2022-09-27T02:50:28.993Z,10.66
2022-09-27T02:53:08.059Z,10.66
2022-09-27T02:55:48.540Z,10.65
2022-09-27T02:58:26.859Z,10.64
2022-09-27T03:01:02.948Z,10.61
2022-09-27T03:03:38.248Z,10.60
2022-09-27T03:06:09.119Z,10.59
2022-09-27T03:08:38.477Z,10.59
2022-09-27T03:11:06.554Z,10.62
2022-09-27T03:13:50.154Z,10.60
2022-09-27T03:16:24.954Z,10.59
2022-09-27T03:18:54.285Z,10.59
2022-09-27T03:21:22.184Z,10.62
2022-09-27T03:23:50.115Z,10.63
2022-09-27T03:26:18.438Z,10.62
2022-09-27T03:28:46.426Z,10.62
2022-09-27T03:31:14.791Z,10.62
2022-09-27T03:33:42.775Z,10.60
2022-09-27T03:36:12.653Z,10.59
2022-09-27T03:38:42.671Z,10.57
2022-09-27T03:41:10.625Z,10.57
2022-09-27T03:43:38.882Z,10.54
2022-09-27T03:46:07.204Z,10.53
2022-09-27T03:48:35.193Z,10.51
2022-09-27T03:51:04.536Z,10.49
2022-09-27T03:53:33.919Z,10.50
2022-09-27T03:56:02.140Z,10.49
2022-09-27T03:58:30.091Z,10.47
2022-09-27T04:00:58.256Z,10.44
2022-09-27T04:03:27.252Z,10.43
2022-09-27T04:05:55.645Z,10.44
2022-09-27T04:08:23.799Z,10.42
2022-09-27T04:10:53.163Z,10.40
2022-09-27T04:13:21.192Z,10.42
2022-09-27T04:15:52.255Z,10.41
2022-09-27T04:18:20.536Z,10.43
2022-09-27T04:20:48.447Z,10.44
2022-09-27T04:23:16.382Z,10.45
2022-09-27T04:25:44.317Z,10.47
2022-09-27T04:28:13.706Z,10.46
2022-09-27T04:30:42.009Z,10.47
2022-09-27T04:33:09.941Z,10.49
2022-09-27T04:35:55.064Z,10.50
2022-09-27T04:38:24.080Z,10.51
2022-09-27T04:40:52.183Z,10.51
2022-09-27T04:43:21.713Z,10.53
2022-09-27T04:45:49.686Z,10.53
2022-09-27T04:48:17.639Z,10.53
2022-09-27T04:50:45.571Z,10.54
2022-09-27T04:53:15.179Z,10.53
2022-09-27T04:55:47.460Z,10.56
2022-09-27T04:58:15.389Z,10.55
2022-09-27T05:00:45.541Z,10.56
2022-09-27T05:03:14.207Z,10.55
2022-09-27T05:05:42.465Z,10.54
2022-09-27T05:08:10.812Z,10.57
2022-09-27T05:10:38.716Z,10.58
2022-09-27T05:13:07.339Z,10.59
2022-09-27T05:15:36.272Z,10.61
2022-09-27T05:18:07.039Z,10.63
2022-09-27T05:20:35.495Z,10.66
2022-09-27T05:23:04.498Z,10.70
2022-09-27T05:25:36.094Z,10.73
2022-09-27T05:28:04.764Z,10.76
2022-09-27T05:30:32.763Z,10.79
2022-09-27T05:33:00.745Z,10.82
2022-09-27T05:35:30.055Z,10.84
2022-09-27T05:38:00.092Z,10.85
2022-09-27T05:40:40.724Z,10.87
2022-09-27T05:43:09.778Z,10.90
2022-09-27T05:45:37.977Z,10.93
2022-09-27T05:48:06.565Z,10.96
2022-09-27T05:50:35.890Z,10.97
2022-09-27T05:53:06.513Z,11.00
2022-09-27T05:55:34.476Z,11.01
2022-09-27T05:58:04.596Z,11.03
2022-09-27T06:00:32.987Z,11.06
2022-09-27T06:03:03.440Z,11.09
2022-09-27T06:05:32.486Z,11.07
2022-09-27T06:08:03.816Z,11.11
2022-09-27T06:10:32.883Z,11.13
2022-09-27T06:13:02.344Z,11.14
2022-09-27T06:15:31.511Z,11.15
2022-09-27T06:18:05.015Z,11.17
2022-09-27T06:20:33.228Z,11.20
2022-09-27T06:23:10.662Z,11.23
2022-09-27T06:25:39.731Z,11.24
2022-09-27T06:28:10.443Z,11.26
2022-09-27T06:30:41.320Z,11.30
2022-09-27T06:33:12.840Z,11.32
2022-09-27T06:35:42.477Z,11.35
2022-09-27T06:38:14.295Z,11.37
2022-09-27T06:40:45.579Z,11.40
2022-09-27T06:43:15.586Z,11.43
2022-09-27T06:45:43.860Z,11.44
2022-09-27T06:48:13.713Z,11.49
2022-09-27T06:50:44.136Z,11.54
2022-09-27T06:53:14.035Z,11.56
2022-09-27T06:55:42.222Z,11.60
2022-09-27T06:58:29.240Z,11.67
2022-09-27T07:00:58.915Z,11.74
2022-09-27T07:03:36.628Z,11.80
2022-09-27T07:06:07.418Z,11.86
2022-09-27T07:08:36.768Z,11.93
2022-09-27T07:11:07.410Z,12.00
2022-09-27T07:13:40.513Z,12.06
2022-09-27T07:16:08.616Z,12.14
2022-09-27T07:18:36.644Z,12.20
2022-09-27T07:21:04.591Z,12.25
2022-09-27T07:23:32.619Z,12.29
2022-09-27T07:26:05.747Z,12.35
2022-09-27T07:28:34.346Z,12.39
2022-09-27T07:31:03.472Z,12.44
2022-09-27T07:33:32.318Z,12.49
2022-09-27T07:36:00.289Z,12.52
2022-09-27T07:38:28.491Z,12.56
2022-09-27T07:40:56.452Z,12.60
2022-09-27T07:43:25.918Z,12.63
2022-09-27T07:45:57.847Z,12.69
2022-09-27T07:48:25.807Z,12.74
2022-09-27T07:50:56.673Z,12.77
2022-09-27T07:53:24.709Z,12.80
2022-09-27T07:55:53.811Z,12.83
2022-09-27T07:58:22.623Z,12.85
2022-09-27T08:00:52.008Z,12.87
2022-09-27T08:03:19.975Z,12.89
2022-09-27T08:05:49.071Z,12.92
2022-09-27T08:08:18.126Z,12.97
2022-09-27T08:10:46.740Z,13.02
2022-09-27T08:13:20.276Z,13.05
2022-09-27T08:15:50.934Z,13.09
2022-09-27T08:18:22.054Z,13.13
2022-09-27T08:20:50.069Z,13.20
2022-09-27T08:23:18.066Z,13.27
2022-09-27T08:25:46.295Z,13.33
2022-09-27T08:28:14.383Z,13.40
2022-09-27T08:30:42.312Z,13.46
2022-09-27T08:33:10.282Z,13.52
2022-09-27T08:35:39.590Z,13.57
2022-09-27T08:38:11.915Z,13.61
2022-09-27T08:40:52.023Z,13.68
2022-09-27T08:43:29.294Z,13.72
2022-09-27T08:46:12.047Z,13.75
2022-09-27T08:48:41.203Z,13.78
2022-09-27T08:51:14.830Z,13.78
2022-09-27T08:53:49.466Z,13.78
2022-09-27T08:56:21.342Z,13.79
2022-09-27T08:58:53.471Z,13.80
2022-09-27T09:01:26.362Z,13.82
2022-09-27T09:04:04.307Z,13.87
2022-09-27T09:06:42.815Z,13.88
2022-09-27T09:09:24.211Z,13.93
2022-09-27T09:12:18.806Z,13.96
2022-09-27T09:14:59.584Z,13.98
2022-09-27T09:17:44.840Z,14.02
2022-09-27T09:20:26.718Z,14.03
2022-09-27T09:23:11.423Z,14.07
2022-09-27T09:25:52.342Z,14.07
2022-09-27T09:28:36.667Z,14.12
2022-09-27T09:31:10.397Z,14.18
2022-09-27T09:33:41.438Z,14.26
2022-09-27T09:36:19.752Z,14.29
2022-09-27T09:38:52.818Z,14.29
2022-09-27T09:41:27.817Z,14.31
2022-09-27T09:44:00.605Z,14.30
2022-09-27T09:46:35.274Z,14.31
2022-09-27T09:49:10.397Z,14.31
2022-09-27T09:51:43.427Z,14.32
2022-09-27T09:54:20.833Z,14.33
2022-09-27T09:56:51.814Z,14.37
2022-09-27T09:59:30.523Z,14.38
2022-09-27T10:02:09.074Z,14.41
2022-09-27T10:04:37.182Z,14.45
2022-09-27T10:07:05.202Z,14.47
2022-09-27T10:09:34.738Z,14.49
2022-09-27T10:12:02.911Z,14.52
2022-09-27T10:14:32.758Z,14.55
2022-09-27T10:17:05.572Z,14.56
2022-09-27T10:19:35.760Z,14.58
2022-09-27T10:22:11.610Z,14.57
2022-09-27T10:24:56.117Z,14.52
2022-09-27T10:27:25.695Z,14.48
2022-09-27T10:30:00.427Z,14.43
2022-09-27T10:32:33.274Z,14.38
2022-09-27T10:35:35.195Z,14.33
2022-09-27T10:38:28.619Z,14.30
2022-09-27T10:40:59.910Z,14.27
2022-09-27T10:43:31.158Z,14.32
2022-09-27T10:46:13.507Z,14.36
2022-09-27T10:48:42.983Z,14.51
2022-09-27T10:51:26.186Z,14.59
2022-09-27T10:53:58.718Z,14.58
2022-09-27T10:56:31.001Z,14.54
2022-09-27T10:59:00.335Z,14.48
2022-09-27T11:01:39.898Z,14.44
2022-09-27T11:04:08.183Z,14.33
2022-09-27T11:06:38.290Z,14.27
2022-09-27T11:09:20.039Z,14.22
2022-09-27T11:11:49.332Z,14.20
2022-09-27T11:14:22.719Z,14.16
2022-09-27T11:17:06.548Z,14.09
2022-09-27T11:19:53.964Z,14.03
2022-09-27T11:22:45.136Z,13.98
2022-09-27T11:25:21.198Z,13.92
2022-09-27T11:28:09.882Z,13.88
2022-09-27T11:30:49.052Z,13.80
2022-09-27T11:33:45.101Z,13.75
2022-09-27T11:36:26.559Z,13.73
2022-09-27T11:39:03.962Z,13.70
2022-09-27T11:41:42.170Z,13.68
2022-09-27T11:44:35.112Z,13.70
2022-09-27T11:47:12.920Z,13.68
2022-09-27T11:50:07.226Z,13.70
2022-09-27T11:52:48.792Z,13.74
2022-09-27T11:55:26.450Z,13.76
2022-09-27T11:58:01.967Z,13.79
2022-09-27T12:00:41.230Z,13.80
2022-09-27T12:03:45.291Z,13.83
2022-09-27T12:06:16.585Z,13.82
2022-09-27T12:09:03.812Z,13.80
2022-09-27T12:11:40.342Z,13.82
2022-09-27T12:14:22.442Z,13.84
2022-09-27T12:16:55.855Z,13.84
2022-09-27T12:19:27.054Z,13.84
2022-09-27T12:21:57.720Z,13.88
2022-09-27T12:24:26.414Z,13.90
2022-09-27T12:26:56.747Z,13.93
2022-09-27T12:29:30.532Z,13.94
2022-09-27T12:32:06.474Z,14.01
2022-09-27T12:34:40.701Z,14.10
2022-09-27T12:37:17.130Z,14.18
2022-09-27T12:39:51.720Z,14.24
2022-09-27T12:42:24.766Z,14.28
2022-09-27T12:44:53.429Z,14.33
2022-09-27T12:47:41.776Z,14.38
2022-09-27T12:50:23.850Z,14.44
2022-09-27T12:52:56.959Z,14.47
2022-09-27T12:55:56.725Z,14.52
2022-09-27T12:58:49.232Z,14.50
2022-09-27T13:01:35.601Z,14.52
2022-09-27T13:04:25.453Z,14.52
2022-09-27T13:07:04.812Z,14.55
2022-09-27T13:09:47.454Z,14.61
2022-09-27T13:12:17.975Z,14.66
2022-09-27T13:14:49.547Z,14.66
2022-09-27T13:17:37.673Z,14.68
2022-09-27T13:20:51.664Z,14.71
2022-09-27T13:24:04.835Z,14.75
2022-09-27T13:27:01.633Z,14.78
2022-09-27T13:29:34.536Z,14.80
2022-09-27T13:32:12.587Z,14.84
2022-09-27T13:34:42.759Z,14.84
2022-09-27T13:37:50.847Z,14.82
2022-09-27T13:40:28.698Z,14.81
2022-09-27T13:43:35.087Z,14.79
2022-09-27T13:46:07.901Z,14.80
2022-09-27T13:48:47.323Z,14.81
2022-09-27T13:51:28.301Z,14.80
2022-09-27T13:54:00.886Z,14.81
2022-09-27T13:56:51.957Z,14.82
2022-09-27T13:59:26.647Z,14.84
2022-09-27T14:02:00.523Z,14.86
2022-09-27T14:04:35.416Z,14.88
2022-09-27T14:07:05.179Z,14.89
2022-09-27T14:09:35.927Z,14.90
2022-09-27T14:12:11.297Z,14.91
2022-09-27T14:14:43.918Z,14.93
2022-09-27T14:17:12.810Z,14.94
2022-09-27T14:19:42.310Z,14.94
2022-09-27T14:22:14.275Z,14.92
2022-09-27T14:24:47.992Z,14.91
2022-09-27T14:27:19.733Z,14.89
2022-09-27T14:29:53.301Z,14.89
2022-09-27T14:32:23.597Z,14.90
2022-09-27T14:35:06.243Z,14.90
2022-09-27T14:37:36.435Z,14.92
2022-09-27T14:40:08.907Z,14.93
2022-09-27T14:42:38.195Z,14.97
2022-09-27T14:45:20.223Z,14.98
2022-09-27T14:47:49.851Z,14.98
2022-09-27T14:50:21.587Z,14.99
2022-09-27T14:52:52.274Z,14.99
2022-09-27T14:55:21.675Z,15.00
2022-09-27T14:57:52.992Z,14.99
2022-09-27T15:00:25.442Z,14.97
2022-09-27T15:02:55.986Z,14.97
2022-09-27T15:05:24.761Z,14.88
2022-09-27T15:07:55.760Z,14.92
2022-09-27T15:10:27.314Z,14.89
2022-09-27T15:13:00.028Z,14.88
2022-09-27T15:15:32.327Z,14.86
2022-09-27T15:18:00.741Z,14.81
2022-09-27T15:20:34.688Z,14.78
2022-09-27T15:23:04.788Z,14.77
2022-09-27T15:25:35.855Z,14.73
2022-09-27T15:28:07.482Z,14.71
2022-09-27T15:30:41.903Z,14.69
2022-09-27T15:33:21.603Z,14.66
2022-09-27T15:35:51.779Z,14.65
2022-09-27T15:38:29.094Z,14.63
2022-09-27T15:41:03.793Z,14.61
2022-09-27T15:43:33.223Z,14.58
2022-09-27T15:46:04.695Z,14.51
2022-09-27T15:48:35.414Z,14.46
2022-09-27T15:51:03.283Z,14.45
2022-09-27T15:53:46.618Z,14.41
2022-09-27T15:56:16.794Z,14.37
2022-09-27T15:58:47.419Z,14.33
2022-09-27T16:01:21.687Z,14.32
2022-09-27T16:03:50.846Z,14.29
2022-09-27T16:06:26.678Z,14.26
2022-09-27T16:08:54.573Z,14.22
2022-09-27T16:11:22.390Z,14.20
2022-09-27T16:13:52.898Z,14.18
2022-09-27T16:16:23.086Z,14.06
2022-09-27T16:18:50.959Z,14.09
2022-09-27T16:21:21.870Z,14.06
2022-09-27T16:23:52.792Z,14.03
2022-09-27T16:26:20.729Z,14.00
2022-09-27T16:28:50.637Z,13.97
2022-09-27T16:31:19.200Z,13.92
2022-09-27T16:33:51.643Z,13.90
2022-09-27T16:36:20.724Z,13.88
2022-09-27T16:38:52.483Z,13.87
2022-09-27T16:41:21.534Z,13.87
2022-09-27T16:43:49.733Z,13.82
2022-09-27T16:46:20.472Z,13.75
2022-09-27T16:48:49.620Z,13.70
2022-09-27T16:51:39.641Z,13.65
2022-09-27T16:54:08.687Z,13.56
2022-09-27T16:56:36.958Z,13.48
2022-09-27T16:59:06.621Z,13.44
2022-09-27T17:01:35.099Z,13.38
2022-09-27T17:04:03.469Z,13.35
2022-09-27T17:06:32.941Z,13.28
2022-09-27T17:09:03.651Z,13.24
2022-09-27T17:11:31.857Z,13.21
2022-09-27T17:14:00.012Z,13.16
2022-09-27T17:16:29.323Z,13.11
2022-09-27T17:18:57.289Z,13.07
2022-09-27T17:21:25.094Z,13.04
2022-09-27T17:23:54.648Z,13.01
2022-09-27T17:26:26.519Z,12.98
2022-09-27T17:28:55.019Z,12.95
2022-09-27T17:31:22.907Z,12.91
2022-09-27T17:33:57.450Z,12.88
2022-09-27T17:36:28.746Z,12.84
2022-09-27T17:38:59.587Z,12.79
2022-09-27T17:41:28.859Z,12.77
2022-09-27T17:43:58.414Z,12.73
2022-09-27T17:46:28.400Z,12.70
2022-09-27T17:49:13.767Z,12.66
2022-09-27T17:51:42.631Z,12.62
2022-09-27T17:54:12.081Z,12.59
2022-09-27T17:56:41.312Z,12.53
2022-09-27T17:59:10.934Z,12.51
2022-09-27T18:01:40.108Z,12.46
2022-09-27T18:04:10.073Z,12.42
2022-09-27T18:06:40.410Z,12.39
2022-09-27T18:09:10.072Z,12.37
2022-09-27T18:11:40.322Z,12.35
2022-09-27T18:14:10.421Z,12.35
2022-09-27T18:16:42.931Z,12.32
2022-09-27T18:19:16.726Z,12.29
2022-09-27T18:21:44.944Z,12.28
2022-09-27T18:24:14.789Z,12.26
2022-09-27T18:26:44.181Z,12.24
2022-09-27T18:29:14.171Z,12.21
2022-09-27T18:31:47.377Z,12.19
2022-09-27T18:34:16.926Z,12.19
2022-09-27T18:36:44.985Z,12.17
2022-09-27T18:39:17.549Z,12.15
2022-09-27T18:41:48.604Z,12.14
2022-09-27T18:44:17.663Z,12.13
2022-09-27T18:46:46.580Z,12.13
2022-09-27T18:49:16.047Z,12.10
2022-09-27T18:51:47.005Z,12.10
2022-09-27T18:54:18.454Z,12.08
2022-09-27T18:56:49.112Z,12.07
2022-09-27T18:59:17.600Z,12.00
2022-09-27T19:01:46.440Z,12.02
2022-09-27T19:04:20.343Z,12.02
2022-09-27T19:06:49.478Z,12.00
2022-09-27T19:09:17.382Z,11.99
2022-09-27T19:11:45.377Z,11.98
2022-09-27T19:14:17.421Z,11.97
2022-09-27T19:16:47.139Z,11.96
2022-09-27T19:19:16.883Z,11.95
2022-09-27T19:21:45.090Z,11.93
2022-09-27T19:24:13.992Z,11.89
2022-09-27T19:26:42.173Z,11.88
2022-09-27T19:29:10.446Z,11.87
2022-09-27T19:31:40.490Z,11.85
2022-09-27T19:34:08.369Z,11.83
2022-09-27T19:36:36.201Z,11.81
2022-09-27T19:39:04.701Z,11.79
2022-09-27T19:41:32.504Z,11.77
2022-09-27T19:44:00.313Z,11.76
2022-09-27T19:46:28.224Z,11.74
2022-09-27T19:48:57.581Z,11.74
2022-09-27T19:51:27.548Z,11.73
2022-09-27T19:53:56.897Z,11.70
2022-09-27T19:56:25.487Z,11.67
2022-09-27T19:58:53.767Z,11.66
2022-09-27T20:01:23.545Z,11.63
2022-09-27T20:03:53.442Z,11.63
2022-09-27T20:06:22.710Z,11.61
2022-09-27T20:08:51.046Z,11.59
2022-09-27T20:11:20.478Z,11.56
2022-09-27T20:13:49.258Z,11.51
2022-09-27T20:16:18.999Z,11.51
2022-09-27T20:18:48.445Z,11.49
2022-09-27T20:21:17.931Z,11.47
2022-09-27T20:23:50.522Z,11.44
2022-09-27T20:26:20.446Z,11.43
2022-09-27T20:28:49.746Z,11.42
2022-09-27T20:31:19.565Z,11.40
2022-09-27T20:33:49.736Z,11.38
2022-09-27T20:36:19.646Z,11.36
2022-09-27T20:38:50.183Z,11.35
2022-09-27T20:41:18.569Z,11.26
2022-09-27T20:43:47.084Z,11.30
2022-09-27T20:46:16.876Z,11.32
2022-09-27T20:48:45.507Z,11.31
2022-09-27T20:51:15.288Z,11.33
2022-09-27T20:53:44.650Z,11.32
2022-09-27T20:56:19.371Z,11.33
2022-09-27T20:58:47.895Z,11.32
2022-09-27T21:01:16.409Z,11.33
2022-09-27T21:03:44.321Z,11.33
2022-09-27T21:06:13.892Z,11.31
2022-09-27T21:08:41.875Z,11.29
2022-09-27T21:11:11.234Z,11.27
2022-09-27T21:13:41.717Z,11.29
2022-09-27T21:16:10.325Z,11.22
2022-09-27T21:18:38.505Z,11.26
2022-09-27T21:21:08.292Z,11.29
2022-09-27T21:23:40.814Z,11.30
2022-09-27T21:26:13.041Z,11.30
2022-09-27T21:28:44.073Z,11.26
2022-09-27T21:31:16.561Z,11.28
2022-09-27T21:33:48.503Z,11.29
2022-09-27T21:36:16.534Z,11.30
2022-09-27T21:38:44.427Z,11.31
2022-09-27T21:41:14.659Z,11.33
2022-09-27T21:43:45.378Z,11.30
2022-09-27T21:46:15.561Z,11.32
2022-09-27T21:48:45.543Z,11.31
2022-09-27T21:51:15.882Z,11.29
2022-09-27T21:53:45.403Z,11.29
2022-09-27T21:56:13.590Z,11.26
2022-09-27T21:58:43.581Z,11.28
2022-09-27T22:01:13.235Z,11.28
2022-09-27T22:03:42.709Z,11.28
2022-09-27T22:06:11.716Z,11.27
2022-09-27T22:08:39.546Z,11.26
2022-09-27T22:11:07.815Z,11.26
2022-09-27T22:13:36.333Z,11.24
2022-09-27T22:16:06.504Z,11.22
2022-09-27T22:18:37.376Z,11.20
2022-09-27T22:21:07.015Z,11.18
2022-09-27T22:23:35.531Z,11.17
2022-09-27T22:26:12.471Z,11.16
2022-09-27T22:28:40.398Z,11.14
2022-09-27T22:31:11.485Z,11.12
2022-09-27T22:33:39.730Z,11.12
2022-09-27T22:36:07.878Z,11.10
2022-09-27T22:38:36.043Z,11.10
2022-09-27T22:41:04.500Z,11.09
2022-09-27T22:43:32.980Z,11.11
2022-09-27T22:46:01.322Z,11.12
2022-09-27T22:48:32.098Z,11.13
2022-09-27T22:51:01.096Z,11.15
2022-09-27T22:53:30.235Z,11.15
2022-09-27T22:56:03.721Z,11.14
2022-09-27T22:58:32.832Z,11.13
2022-09-27T23:01:01.383Z,11.10
2022-09-27T23:03:31.016Z,11.10
2022-09-27T23:06:03.427Z,11.06
2022-09-27T23:08:33.764Z,11.05
2022-09-27T23:11:06.570Z,11.03
2022-09-27T23:13:35.517Z,11.03
2022-09-27T23:16:05.091Z,11.02
2022-09-27T23:18:34.776Z,10.98
2022-09-27T23:21:06.875Z,10.98
2022-09-27T23:23:35.331Z,10.97
2022-09-27T23:26:05.654Z,10.95
2022-09-27T23:28:34.363Z,10.93
2022-09-27T23:31:08.142Z,10.93
2022-09-27T23:33:38.567Z,10.92
2022-09-27T23:36:07.781Z,10.91
2022-09-27T23:38:36.366Z,10.90
2022-09-27T23:41:04.686Z,10.88
2022-09-27T23:43:32.488Z,10.88
2022-09-27T23:46:00.277Z,10.88
2022-09-27T23:48:28.586Z,10.88
2022-09-27T23:50:57.859Z,10.87
2022-09-27T23:53:26.109Z,10.86
2022-09-27T23:56:02.688Z,10.86
2022-09-27T23:58:33.780Z,10.85
